Startpagina
METAR-TAF:

METAR-TAF

Vliegvelden :

Aeropuerto de Pamplona

Pamplona, Spanje

breedte: 42-46N, lengte: 001-38W, hoogte: 459 m

Actueel weer

Dit bericht is 17 minuten geleden gemaakt, om 21:00 UTC
Weinig wind
Temperatuur 8°C
Vochtigheid 71%
Druk 1032 hPa
Zicht 10 km of meer
geen wolken onder 1500 m en geen cumulonimbus

METAR: LEPP 232100Z 00000KT CAVOK 08/03 Q1032

Tijdstip: 22:17 (21:17 UTC)

Verwachting

Dit bericht is 1 uur en het 17 minuten geleden gemaakt, om 20:00 UTC
Verwachting geldig van 23 om 21 UTC tot 24 om 21 UTC
Wind 3 kt uit variabele richting
Zicht 10 km of meer
geen wolken onder 1500 m en geen cumulonimbus
Tijdelijke
van 24 om 13 UTC tot 24 om 18 UTC
Wind 10 kt uit het noordnoordwesten

TAF: LEPP 232000Z 2321/2421 VRB03KT CAVOK TX19/2415Z TNM00/2407Z TEMPO 2413/2418 34010KT

Waarnemingen en weersverwachtingen van meer dan 4000 vliegvelden (METAR en TAF).

De beschikbare stations zijn de gele en rode punten op de kaart.

Ga met uw muis naar het station om de naam te zien.

Klik dan om waarnemingen en weersverwachtingen te zien.

kaart wijzigen: klik op de groene knoppen met een zwart kruis om in te zoomen, op de groene knop met een streepje om uit te zoomen of op de groene pijlen voor aangrenzende kaarten.


METAR-TAF: